Time;durP1;ratioP1;P1;durP2;ratioP2;P2;SDS_P1;SDS_P2;PMS_P1;PMS_P2;Temp;Humidity;BMP_temperature;BMP_pressure;BME280_temperature;BME280_humidity;BME280_pressure;Samples;Min_cycle;Max_cycle;Signal;HPM_P1;HPM_P2
2022/07/30 00:02:00;;;;;;;5.25;2.20;;;20.30;76.10;;;;;;4867652;29;20140;-69
2022/07/30 00:04:27;;;;;;;4.15;2.30;;;20.30;76.20;;;;;;4868885;29;20049;-70
2022/07/30 00:06:54;;;;;;;4.30;2.13;;;20.30;76.20;;;;;;4868933;29;20057;-68
2022/07/30 00:09:22;;;;;;;5.35;2.30;;;20.30;76.10;;;;;;4869885;29;20495;-69
2022/07/30 00:11:49;;;;;;;5.63;1.90;;;20.20;76.10;;;;;;4865450;29;20092;-70
2022/07/30 00:14:16;;;;;;;4.38;2.00;;;20.20;76.20;;;;;;4869250;29;20132;-70
2022/07/30 00:16:43;;;;;;;3.97;1.80;;;20.20;76.00;;;;;;4864551;29;20138;-70
2022/07/30 00:19:11;;;;;;;3.72;1.83;;;20.20;76.10;;;;;;4866208;29;20055;-69
2022/07/30 00:21:38;;;;;;;3.88;1.63;;;20.10;76.00;;;;;;4865284;29;20063;-71
2022/07/30 00:24:05;;;;;;;4.63;1.77;;;20.10;75.70;;;;;;4868942;29;20045;-70
2022/07/30 00:26:34;;;;;;;3.65;1.55;;;20.10;75.60;;;;;;4868284;29;20488;-70
2022/07/30 00:29:01;;;;;;;4.93;1.83;;;20.10;75.50;;;;;;4875594;29;20457;-70
2022/07/30 00:31:28;;;;;;;3.70;1.70;;;20.10;75.40;;;;;;4868743;29;20055;-69
2022/07/30 00:33:55;;;;;;;3.88;1.52;;;20.00;75.60;;;;;;4874837;29;20063;-69
2022/07/30 00:36:23;;;;;;;3.25;1.73;;;20.00;75.50;;;;;;4861070;29;20052;-70
2022/07/30 00:38:50;;;;;;;2.80;1.55;;;20.00;75.50;;;;;;4872038;29;20045;-70
2022/07/30 00:41:17;;;;;;;3.80;1.70;;;20.00;75.70;;;;;;4873585;29;20077;-70
2022/07/30 00:43:45;;;;;;;5.63;1.80;;;19.90;76.00;;;;;;4870368;29;20128;-70
2022/07/30 00:46:13;;;;;;;4.63;1.80;;;19.90;76.20;;;;;;4869774;29;20049;-71
2022/07/30 00:48:40;;;;;;;3.60;1.83;;;19.90;76.40;;;;;;4875914;29;20048;-69
2022/07/30 00:51:07;;;;;;;4.50;1.98;;;19.90;76.70;;;;;;4870944;29;21350;-70
2022/07/30 00:53:35;;;;;;;8.07;2.33;;;19.90;76.80;;;;;;4874962;29;20073;-68
2022/07/30 00:56:04;;;;;;;6.18;2.13;;;19.90;76.70;;;;;;4870419;29;20065;-69
2022/07/30 00:58:31;;;;;;;3.47;1.67;;;19.90;76.50;;;;;;4877707;29;20117;-70
2022/07/30 01:00:59;;;;;;;4.22;2.00;;;20.00;76.60;;;;;;4871358;29;20053;-69
2022/07/30 01:03:26;;;;;;;5.72;1.80;;;20.00;76.30;;;;;;4870659;29;20049;-68
2022/07/30 01:05:54;;;;;;;4.63;1.85;;;20.00;76.30;;;;;;4874135;29;20053;-70
2022/07/30 01:08:22;;;;;;;4.15;2.00;;;20.00;76.40;;;;;;4874959;29;20060;-69
2022/07/30 01:10:48;;;;;;;3.88;1.95;;;20.00;76.40;;;;;;4865890;29;20136;-70
2022/07/30 01:13:16;;;;;;;4.60;2.80;;;20.10;76.30;;;;;;4880697;29;20108;-69
2022/07/30 01:15:44;;;;;;;4.22;1.92;;;20.10;76.20;;;;;;4877876;29;20081;-69
2022/07/30 01:18:13;;;;;;;5.05;2.35;;;20.00;76.40;;;;;;4871005;29;20057;-69
2022/07/30 01:20:47;;;;;;;4.88;2.15;;;19.90;76.60;;;;;;4883191;29;20057;-69
2022/07/30 01:23:21;;;;;;;3.47;1.92;;;20.00;76.60;;;;;;4876140;29;20128;-69
2022/07/30 01:25:56;;;;;;;5.00;1.90;;;19.90;76.70;;;;;;4880419;29;20534;-69
2022/07/30 01:28:26;;;;;;;4.20;1.92;;;20.00;76.70;;;;;;4870286;29;20064;-70
2022/07/30 01:30:56;;;;;;;5.47;2.80;;;19.90;76.90;;;;;;4889160;29;20103;-69
2022/07/30 01:33:25;;;;;;;4.80;2.60;;;19.90;76.90;;;;;;4881029;29;20052;-69
2022/07/30 01:35:55;;;;;;;4.43;2.38;;;19.90;77.00;;;;;;4875954;29;20053;-69
2022/07/30 01:38:24;;;;;;;3.90;2.15;;;19.90;77.20;;;;;;4874049;29;20077;-70
2022/07/30 01:40:54;;;;;;;5.18;2.38;;;19.90;77.20;;;;;;4876341;29;20061;-70
2022/07/30 01:43:24;;;;;;;4.95;2.15;;;19.90;77.30;;;;;;4876160;29;20045;-70
2022/07/30 01:45:52;;;;;;;13.20;3.33;;;19.90;77.10;;;;;;4877603;29;20084;-69
2022/07/30 01:48:22;;;;;;;;;;;19.80;77.50;;;;;;4874425;29;20053;-69
2022/07/30 01:50:53;;;;;;;5.95;2.70;;;19.80;77.60;;;;;;4893080;29;19992;-69
2022/07/30 01:53:23;;;;;;;5.70;2.63;;;19.90;77.20;;;;;;4878159;29;20136;-69
2022/07/30 01:55:54;;;;;;;4.93;2.40;;;19.90;77.40;;;;;;4892065;29;20079;-70
2022/07/30 01:58:24;;;;;;;4.85;2.75;;;19.90;77.00;;;;;;4891582;29;20053;-69
2022/07/30 02:00:57;;;;;;;6.05;3.13;;;19.90;77.40;;;;;;4877109;29;20061;-70
2022/07/30 02:03:25;;;;;;;6.78;3.38;;;19.80;77.50;;;;;;4877557;29;20131;-69
2022/07/30 02:05:56;;;;;;;5.25;3.05;;;19.80;77.70;;;;;;4873961;29;20356;-70
2022/07/30 02:08:33;;;;;;;6.25;3.10;;;19.80;77.50;;;;;;4879813;29;20050;-69
2022/07/30 02:11:07;;;;;;;7.03;3.28;;;19.80;77.50;;;;;;4872805;29;20540;-68
2022/07/30 02:13:41;;;;;;;6.50;3.10;;;19.70;77.70;;;;;;4871369;29;20111;-69
2022/07/30 02:16:16;;;;;;;7.63;3.17;;;19.70;77.50;;;;;;4873918;29;20073;-69
2022/07/30 02:18:50;;;;;;;7.10;3.03;;;19.80;77.10;;;;;;4871435;29;20055;-70
2022/07/30 02:21:20;;;;;;;7.13;3.15;;;19.80;77.00;;;;;;4869645;29;20081;-69
2022/07/30 02:23:49;;;;;;;7.90;3.45;;;19.80;76.80;;;;;;4863169;29;20049;-69
2022/07/30 02:26:21;;;;;;;9.40;3.92;;;19.70;77.20;;;;;;4869278;29;20457;-69
2022/07/30 02:28:51;;;;;;;7.03;3.58;;;19.70;77.10;;;;;;4869519;29;20507;-69
2022/07/30 02:31:23;;;;;;;7.55;3.35;;;19.70;76.90;;;;;;4872145;29;20037;-70
2022/07/30 02:33:56;;;;;;;6.30;3.20;;;19.70;77.00;;;;;;4876882;29;20132;-69
2022/07/30 02:36:27;;;;;;;5.97;3.17;;;19.60;77.20;;;;;;4864224;29;20041;-70
2022/07/30 02:38:56;;;;;;;6.25;3.42;;;19.60;77.40;;;;;;4872361;29;20033;-68
2022/07/30 02:41:26;;;;;;;6.28;3.17;;;19.60;77.50;;;;;;4862656;29;20053;-69
2022/07/30 02:43:55;;;;;;;6.75;3.60;;;19.60;77.60;;;;;;4867895;29;20162;-67
2022/07/30 02:46:24;;;;;;;7.72;3.60;;;19.60;77.60;;;;;;4871121;29;20045;-68
2022/07/30 02:49:16;;;;;;;8.10;3.45;;;19.50;77.80;;;;;;4874218;29;20063;-68
2022/07/30 02:51:46;;;;;;;7.15;3.72;;;19.50;78.10;;;;;;4875658;29;20053;-69
2022/07/30 02:54:15;;;;;;;6.60;3.70;;;19.40;78.40;;;;;;4865553;29;20049;-68
2022/07/30 02:56:45;;;;;;;7.32;3.90;;;19.40;78.50;;;;;;4867299;29;20060;-68
2022/07/30 02:59:14;;;;;;;6.53;3.33;;;19.40;78.70;;;;;;4875846;29;20132;-68
2022/07/30 03:01:42;;;;;;;5.18;2.42;;;19.40;78.40;;;;;;4866941;29;20083;-69
2022/07/30 03:04:10;;;;;;;5.35;2.58;;;19.40;78.10;;;;;;4864236;29;20544;-69
2022/07/30 03:06:39;;;;;;;4.53;2.60;;;19.40;77.90;;;;;;4860453;29;20040;-68
2022/07/30 03:09:07;;;;;;;4.80;2.28;;;19.40;77.80;;;;;;4877246;29;20051;-67
2022/07/30 03:11:36;;;;;;;4.05;2.28;;;19.40;77.80;;;;;;4872063;29;20491;-68
2022/07/30 03:14:06;;;;;;;5.70;2.30;;;19.30;77.90;;;;;;4874212;29;20440;-68
2022/07/30 03:16:37;;;;;;;4.90;2.45;;;19.20;78.20;;;;;;4872756;29;20065;-68
2022/07/30 03:19:08;;;;;;;4.60;2.58;;;19.20;78.20;;;;;;4876814;29;20109;-68
2022/07/30 03:21:37;;;;;;;3.72;1.85;;;19.20;78.40;;;;;;4878938;29;20051;-68
2022/07/30 03:24:08;;;;;;;4.28;2.58;;;19.20;78.60;;;;;;4862013;29;20056;-68
2022/07/30 03:26:37;;;;;;;6.57;2.75;;;19.10;78.80;;;;;;4876648;29;20064;-66
2022/07/30 03:29:08;;;;;;;3.72;2.30;;;19.10;78.90;;;;;;4868231;29;20069;-67
2022/07/30 03:31:36;;;;;;;5.70;2.72;;;19.10;79.10;;;;;;4875523;29;20045;-68
2022/07/30 03:34:03;;;;;;;6.68;2.72;;;19.10;79.30;;;;;;4870758;29;20380;-68
2022/07/30 03:36:30;;;;;;;5.30;2.72;;;19.10;79.20;;;;;;4872902;29;20053;-68
2022/07/30 03:38:58;;;;;;;3.70;2.35;;;19.10;79.30;;;;;;4875017;29;20137;-69
2022/07/30 03:41:25;;;;;;;7.20;3.13;;;19.10;79.40;;;;;;4874275;29;20053;-69
2022/07/30 03:43:53;;;;;;;5.97;2.60;;;19.10;79.40;;;;;;4872857;29;20086;-69
2022/07/30 03:46:22;;;;;;;4.30;2.10;;;19.10;79.10;;;;;;4874259;29;20061;-68
2022/07/30 03:48:52;;;;;;;5.63;2.78;;;19.10;79.20;;;;;;4870363;29;20054;-67
2022/07/30 03:51:20;;;;;;;4.55;2.40;;;19.10;79.00;;;;;;4866826;29;20056;-68
2022/07/30 03:53:47;;;;;;;5.10;2.58;;;19.20;78.90;;;;;;4868391;29;20049;-69
2022/07/30 03:56:34;;;;;;;5.82;2.70;;;19.10;79.00;;;;;;4864611;29;20064;-69
2022/07/30 03:59:13;;;;;;;6.80;2.38;;;19.10;78.90;;;;;;4867874;29;20188;-68
2022/07/30 04:01:42;;;;;;;7.07;2.53;;;19.10;78.70;;;;;;4869609;29;20129;-68
2022/07/30 04:04:26;;;;;;;6.63;2.35;;;19.10;78.60;;;;;;4869410;29;20056;-67
2022/07/30 04:06:55;;;;;;;4.93;2.20;;;19.10;78.70;;;;;;4873085;29;20136;-68
2022/07/30 04:09:22;;;;;;;2.85;1.88;;;19.10;78.70;;;;;;4873951;29;20037;-69
2022/07/30 04:11:49;;;;;;;3.45;2.05;;;19.10;78.70;;;;;;4887933;29;20507;-66
2022/07/30 04:14:21;;;;;;;4.22;2.10;;;19.10;78.60;;;;;;4873695;29;20056;-67
2022/07/30 04:16:59;;;;;;;5.50;2.50;;;19.10;78.50;;;;;;4882488;29;20049;-69
2022/07/30 04:19:30;;;;;;;3.83;2.10;;;19.10;78.70;;;;;;4874978;29;20105;-68
2022/07/30 04:21:58;;;;;;;4.88;2.40;;;19.10;78.60;;;;;;4890042;29;20096;-68
2022/07/30 04:24:26;;;;;;;6.32;2.90;;;19.10;78.70;;;;;;4866125;29;20116;-67
2022/07/30 04:26:54;;;;;;;6.53;2.80;;;19.10;78.90;;;;;;4873704;29;20476;-66
2022/07/30 04:29:22;;;;;;;5.50;2.90;;;19.00;79.00;;;;;;4870564;29;20137;-67
2022/07/30 04:31:49;;;;;;;5.93;3.40;;;19.00;79.30;;;;;;4868799;29;20059;-67
2022/07/30 04:34:45;;;;;;;6.03;3.08;;;18.90;79.40;;;;;;4866379;29;20725;-68
2022/07/30 04:37:12;;;;;;;7.22;3.55;;;18.90;79.50;;;;;;4869411;29;20057;-68
2022/07/30 04:39:39;;;;;;;5.85;3.05;;;18.90;79.50;;;;;;4868149;29;20271;-67
2022/07/30 04:42:06;;;;;;;5.75;3.05;;;18.90;79.50;;;;;;4874319;29;20097;-68
2022/07/30 04:44:37;;;;;;;5.70;2.85;;;18.90;79.50;;;;;;4864701;29;20047;-68
2022/07/30 04:47:39;;;;;;;4.45;2.58;;;19.00;79.70;;;;;;4864423;29;20064;-68
2022/07/30 04:50:41;;;;;;;6.88;3.15;;;18.90;79.70;;;;;;4875113;29;20375;-68
2022/07/30 04:53:11;;;;;;;7.70;3.25;;;18.90;79.80;;;;;;4877419;29;20160;-68
2022/07/30 04:55:46;;;;;;;8.13;3.55;;;19.00;79.90;;;;;;4874080;29;20053;-67
2022/07/30 04:58:16;;;;;;;7.63;3.50;;;19.00;80.00;;;;;;4873498;29;20045;-68
2022/07/30 05:00:45;;;;;;;6.43;3.50;;;19.00;80.00;;;;;;4869635;29;20121;-68
2022/07/30 05:03:17;;;;;;;6.93;3.42;;;19.00;80.00;;;;;;4875360;29;20128;-68
2022/07/30 05:05:52;;;;;;;7.35;4.25;;;19.00;80.10;;;;;;4874261;29;20089;-67
2022/07/30 05:08:19;;;;;;;7.63;4.17;;;19.00;79.90;;;;;;4869545;29;20052;-67
2022/07/30 05:10:46;;;;;;;7.28;4.05;;;19.00;79.90;;;;;;4878845;29;21813;-68
2022/07/30 05:13:15;;;;;;;7.13;3.75;;;19.00;79.90;;;;;;4881167;29;20051;-68
2022/07/30 05:15:44;;;;;;;9.93;4.00;;;19.00;79.90;;;;;;4866152;29;20113;-67
2022/07/30 05:18:12;;;;;;;8.75;4.53;;;19.00;79.80;;;;;;4869442;29;20102;-67
2022/07/30 05:20:42;;;;;;;8.63;4.18;;;19.10;80.00;;;;;;4866204;29;20582;-67
2022/07/30 05:23:33;;;;;;;8.15;4.30;;;19.10;80.20;;;;;;4856247;29;20123;-69
2022/07/30 05:26:11;;;;;;;7.35;3.80;;;19.00;80.10;;;;;;4873076;29;20049;-68
2022/07/30 05:28:45;;;;;;;7.38;3.92;;;19.00;80.00;;;;;;4863582;29;20061;-69
2022/07/30 05:31:14;;;;;;;8.60;4.63;;;19.00;80.10;;;;;;4861440;29;20052;-68
2022/07/30 05:33:46;;;;;;;9.60;4.72;;;19.00;80.10;;;;;;4864302;29;20053;-68
2022/07/30 05:36:16;;;;;;;7.82;4.32;;;19.00;80.20;;;;;;4860432;29;20048;-68
2022/07/30 05:38:44;;;;;;;7.32;3.78;;;19.00;80.30;;;;;;4868165;29;20057;-69
2022/07/30 05:41:40;;;;;;;7.65;4.45;;;19.00;80.40;;;;;;4849725;29;20061;-68
2022/07/30 05:44:18;;;;;;;6.70;3.80;;;19.10;80.20;;;;;;4884176;29;20500;-67
2022/07/30 05:46:45;;;;;;;9.75;4.88;;;19.10;80.20;;;;;;4864737;29;20105;-68
2022/07/30 05:49:14;;;;;;;9.65;4.28;;;19.10;80.00;;;;;;4870102;29;20048;-69
2022/07/30 05:51:41;;;;;;;8.80;4.43;;;19.10;80.30;;;;;;4870774;29;20512;-66
2022/07/30 05:54:09;;;;;;;9.05;4.13;;;19.10;80.30;;;;;;4864652;29;20492;-69
2022/07/30 05:56:59;;;;;;;7.63;4.47;;;19.10;80.40;;;;;;4869947;29;20053;-69
2022/07/30 05:59:38;;;;;;;9.38;4.30;;;19.10;80.30;;;;;;4863469;29;20055;-69
2022/07/30 06:02:09;;;;;;;8.02;4.55;;;19.10;80.40;;;;;;4870807;29;20045;-69
2022/07/30 06:04:52;;;;;;;10.27;4.93;;;19.10;80.30;;;;;;4860330;29;20071;-67
2022/07/30 06:07:19;;;;;;;7.57;4.63;;;19.10;80.40;;;;;;4867618;29;20188;-67
2022/07/30 06:09:48;;;;;;;7.15;4.20;;;19.20;80.30;;;;;;4858805;29;20096;-68
2022/07/30 06:12:14;;;;;;;8.10;4.80;;;19.20;80.30;;;;;;4866383;29;20515;-68
2022/07/30 06:14:43;;;;;;;8.00;4.35;;;19.20;80.00;;;;;;4877808;29;20060;-68
2022/07/30 06:17:15;;;;;;;7.63;4.55;;;19.20;80.00;;;;;;4871460;29;20131;-68
2022/07/30 06:20:06;;;;;;;9.98;4.50;;;19.30;80.00;;;;;;4855155;29;20519;-67
2022/07/30 06:22:45;;;;;;;10.25;5.25;;;19.30;79.80;;;;;;4886690;29;20057;-66
2022/07/30 06:25:21;;;;;;;8.93;4.60;;;19.30;79.90;;;;;;4867048;29;20045;-67
2022/07/30 06:27:49;;;;;;;8.30;4.25;;;19.40;79.80;;;;;;4874574;29;20059;-67
2022/07/30 06:30:16;;;;;;;11.07;4.57;;;19.50;79.70;;;;;;4868471;29;20097;-66
2022/07/30 06:32:44;;;;;;;9.30;4.70;;;19.50;79.90;;;;;;4864998;29;20060;-68
2022/07/30 06:35:12;;;;;;;11.18;5.43;;;19.60;79.90;;;;;;4859369;29;20054;-68
2022/07/30 06:37:41;;;;;;;8.75;4.45;;;19.60;79.60;;;;;;4862280;29;20057;-69
2022/07/30 06:40:10;;;;;;;8.43;4.90;;;19.60;79.80;;;;;;4865601;29;20148;-68
2022/07/30 06:43:04;;;;;;;9.32;4.95;;;19.60;79.90;;;;;;4863301;29;20049;-68
2022/07/30 06:45:43;;;;;;;11.90;4.10;;;19.60;79.70;;;;;;4861750;29;20073;-68
2022/07/30 06:48:31;;;;;;;7.72;4.40;;;19.80;79.40;;;;;;4865769;29;20056;-69
2022/07/30 06:50:59;;;;;;;;;;;19.90;79.50;;;;;;4866608;29;20037;-68
2022/07/30 06:53:28;;;;;;;7.88;3.60;;;20.00;79.30;;;;;;4859738;29;19951;-69
2022/07/30 06:56:10;;;;;;;7.43;4.63;;;19.90;79.20;;;;;;4871549;29;20065;-67
2022/07/30 06:58:55;;;;;;;8.77;5.32;;;20.00;78.70;;;;;;4866396;29;20054;-68
2022/07/30 07:01:41;;;;;;;11.75;6.13;;;19.90;78.90;;;;;;4869818;29;20369;-68
2022/07/30 07:04:08;;;;;;;11.63;4.90;;;19.90;79.00;;;;;;4863671;29;20049;-69
2022/07/30 07:06:38;;;;;;;8.48;5.03;;;19.90;79.30;;;;;;4869029;29;20053;-68
2022/07/30 07:09:06;;;;;;;9.10;4.28;;;19.90;79.20;;;;;;4864577;29;20057;-68
2022/07/30 07:12:00;;;;;;;7.50;3.45;;;19.90;79.40;;;;;;4865966;29;20431;-69
2022/07/30 07:14:29;;;;;;;5.30;3.20;;;20.00;79.40;;;;;;4879712;29;20496;-69
2022/07/30 07:16:56;;;;;;;6.20;3.47;;;20.10;79.40;;;;;;4864809;29;20049;-68
2022/07/30 07:19:49;;;;;;;5.63;3.05;;;20.20;78.90;;;;;;4865998;29;20057;-70
2022/07/30 07:22:16;;;;;;;5.45;2.97;;;20.40;78.60;;;;;;4862537;29;20053;-69
2022/07/30 07:24:45;;;;;;;5.05;2.88;;;20.50;78.50;;;;;;4876587;29;20044;-69
2022/07/30 07:27:17;;;;;;;6.80;2.58;;;20.50;78.40;;;;;;4864651;29;20041;-68
2022/07/30 07:29:48;;;;;;;5.75;2.92;;;20.50;78.30;;;;;;4864964;29;20048;-68
2022/07/30 07:32:15;;;;;;;5.20;3.15;;;20.50;78.40;;;;;;4878145;29;20055;-68
2022/07/30 07:34:42;;;;;;;5.10;2.58;;;20.50;78.40;;;;;;4861839;29;20079;-69
2022/07/30 07:37:10;;;;;;;5.25;2.80;;;20.60;78.10;;;;;;4868220;29;20481;-68
2022/07/30 07:39:37;;;;;;;5.15;2.90;;;20.70;77.80;;;;;;4870351;29;20045;-68
2022/07/30 07:42:04;;;;;;;4.32;2.30;;;20.80;77.60;;;;;;4863762;29;20045;-69
2022/07/30 07:44:32;;;;;;;3.95;2.47;;;21.10;77.50;;;;;;4877604;29;20236;-69
2022/07/30 07:47:00;;;;;;;4.65;3.10;;;21.10;77.20;;;;;;4860362;29;20053;-68
2022/07/30 07:49:33;;;;;;;5.28;3.10;;;21.20;77.00;;;;;;4863112;29;20049;-69
2022/07/30 07:52:01;;;;;;;4.47;2.20;;;21.30;76.20;;;;;;4875598;29;20057;-69
2022/07/30 07:54:29;;;;;;;3.97;2.20;;;21.30;76.70;;;;;;4868362;29;20054;-68
2022/07/30 07:56:56;;;;;;;3.22;2.20;;;21.40;76.80;;;;;;4863757;29;20061;-68
2022/07/30 07:59:31;;;;;;;4.07;1.90;;;21.50;76.40;;;;;;4867423;29;20104;-68
2022/07/30 08:02:00;;;;;;;6.90;2.40;;;21.60;75.90;;;;;;4882746;29;20121;-77
2022/07/30 08:04:47;;;;;;;4.60;2.20;;;21.60;75.70;;;;;;4864427;29;20136;-77
2022/07/30 08:07:33;;;;;;;5.70;2.47;;;21.80;75.50;;;;;;4868581;29;20056;-77
2022/07/30 08:10:19;;;;;;;3.65;2.20;;;22.00;75.30;;;;;;4866655;29;20415;-78
2022/07/30 08:13:04;;;;;;;5.10;2.50;;;22.10;74.90;;;;;;4864652;29;20515;-78
2022/07/30 08:15:50;;;;;;;3.70;1.98;;;22.20;74.40;;;;;;4868873;29;20166;-78
2022/07/30 08:18:50;;;;;;;3.30;2.15;;;22.30;74.40;;;;;;4867305;29;20060;-79
2022/07/30 08:21:22;;;;;;;5.38;2.55;;;22.50;73.70;;;;;;4864289;29;20858;-77
2022/07/30 08:23:49;;;;;;;3.40;2.00;;;22.60;73.70;;;;;;4864839;29;20050;-77
2022/07/30 08:26:16;;;;;;;4.63;2.20;;;22.70;73.60;;;;;;4866755;29;20044;-79
2022/07/30 08:28:44;;;;;;;3.95;2.22;;;22.80;73.30;;;;;;4869444;29;20574;-76
2022/07/30 08:31:12;;;;;;;4.30;2.40;;;23.00;72.90;;;;;;4860767;29;20180;-76
2022/07/30 08:33:39;;;;;;;3.83;2.13;;;23.10;72.50;;;;;;4861992;29;20659;-76
2022/07/30 08:36:09;;;;;;;5.88;2.38;;;23.20;72.50;;;;;;4868011;29;20045;-78
2022/07/30 08:38:36;;;;;;;7.60;2.47;;;23.30;71.50;;;;;;4868355;29;20082;-77
2022/07/30 08:41:03;;;;;;;4.38;2.40;;;23.40;71.20;;;;;;4867169;29;20119;-77
2022/07/30 08:43:30;;;;;;;2.90;1.85;;;23.40;71.50;;;;;;4862379;29;20419;-74
2022/07/30 08:46:01;;;;;;;4.53;2.28;;;23.40;70.90;;;;;;4864931;29;20065;-77
2022/07/30 08:48:52;;;;;;;3.45;2.10;;;23.50;71.10;;;;;;4878229;29;20048;-79
2022/07/30 08:51:23;;;;;;;4.00;2.25;;;23.60;70.70;;;;;;4866029;29;20500;-78
2022/07/30 08:54:08;;;;;;;4.18;2.08;;;23.60;70.20;;;;;;4866471;29;20068;-79
2022/07/30 08:56:37;;;;;;;5.35;2.92;;;23.60;69.90;;;;;;4874273;29;20057;-76
2022/07/30 08:59:04;;;;;;;3.92;2.20;;;23.50;69.30;;;;;;4877329;29;20133;-76
2022/07/30 09:01:31;;;;;;;8.75;2.42;;;23.40;69.60;;;;;;4869323;29;20045;-74
2022/07/30 09:03:59;;;;;;;4.30;2.17;;;23.30;69.10;;;;;;4867178;29;20480;-77
2022/07/30 09:06:29;;;;;;;3.13;2.00;;;23.20;69.50;;;;;;4865837;29;20057;-76
2022/07/30 09:08:56;;;;;;;4.97;2.13;;;23.30;69.10;;;;;;4862282;29;20055;-77
2022/07/30 09:11:23;;;;;;;7.57;2.10;;;23.60;69.00;;;;;;4867966;29;20050;-76
2022/07/30 09:13:51;;;;;;;4.88;2.05;;;23.70;68.40;;;;;;4866412;29;20049;-76
2022/07/30 09:16:20;;;;;;;5.47;2.55;;;23.90;68.20;;;;;;4873925;29;20056;-77
2022/07/30 09:18:49;;;;;;;4.15;2.10;;;24.10;67.60;;;;;;4871076;29;20793;-78
2022/07/30 09:21:18;;;;;;;5.40;2.30;;;24.30;66.70;;;;;;4866956;29;20514;-79
2022/07/30 09:23:58;;;;;;;7.43;2.45;;;24.50;66.10;;;;;;4878230;29;20058;-76
2022/07/30 09:26:57;;;;;;;5.25;2.83;;;24.50;65.70;;;;;;4866183;29;20060;-77
2022/07/30 09:29:43;;;;;;;3.65;2.20;;;24.70;64.90;;;;;;4870179;29;20056;-75
2022/07/30 09:32:48;;;;;;;4.03;2.53;;;24.80;64.00;;;;;;4871551;29;20052;-77
2022/07/30 09:35:35;;;;;;;4.22;2.33;;;24.90;64.00;;;;;;4861888;29;20053;-79
2022/07/30 09:38:12;;;;;;;4.53;2.85;;;25.10;64.10;;;;;;4870529;29;20049;-77
2022/07/30 09:40:52;;;;;;;4.90;2.78;;;25.10;63.20;;;;;;4870834;29;20136;-78
2022/07/30 09:43:43;;;;;;;4.32;2.20;;;25.10;63.00;;;;;;4868458;29;20522;-76
2022/07/30 09:46:14;;;;;;;6.57;2.45;;;24.90;62.80;;;;;;4871891;29;20045;-76
2022/07/30 09:48:42;;;;;;;3.97;2.50;;;24.90;63.00;;;;;;4870000;29;20468;-76
2022/07/30 09:51:10;;;;;;;4.90;2.47;;;25.10;62.70;;;;;;4867834;29;20193;-76
2022/07/30 09:53:52;;;;;;;3.85;2.22;;;25.20;62.60;;;;;;4865873;29;20153;-79
2022/07/30 09:56:29;;;;;;;5.15;2.20;;;25.30;62.00;;;;;;4859587;29;20060;-76
2022/07/30 09:58:56;;;;;;;4.30;2.28;;;25.30;61.00;;;;;;4881597;29;21024;-80
2022/07/30 10:01:24;;;;;;;5.47;2.67;;;25.20;60.80;;;;;;4869367;29;20416;-78
2022/07/30 10:04:09;;;;;;;4.45;2.30;;;25.30;60.80;;;;;;4868427;29;20068;-76
2022/07/30 10:07:01;;;;;;;4.18;2.13;;;25.40;60.50;;;;;;4873538;29;20045;-79
2022/07/30 10:09:44;;;;;;;2.72;2.00;;;25.60;60.40;;;;;;4868267;29;20506;-77
2022/07/30 10:12:15;;;;;;;4.65;2.30;;;25.70;59.70;;;;;;4870960;29;20105;-76
2022/07/30 10:14:47;;;;;;;3.70;2.00;;;25.80;59.80;;;;;;4867968;29;21945;-76
2022/07/30 10:17:18;;;;;;;6.00;2.50;;;25.70;59.00;;;;;;4870018;29;20060;-76
2022/07/30 10:19:57;;;;;;;3.25;1.95;;;25.80;57.80;;;;;;4868371;29;20399;-74
2022/07/30 10:22:53;;;;;;;3.22;1.73;;;25.90;58.00;;;;;;4869973;29;20177;-76
2022/07/30 10:25:36;;;;;;;3.42;2.10;;;26.10;56.80;;;;;;4871912;29;20044;-76
2022/07/30 10:28:24;;;;;;;3.65;2.03;;;26.20;56.10;;;;;;4871407;29;20056;-75
2022/07/30 10:30:53;;;;;;;5.38;2.58;;;26.30;55.60;;;;;;4870524;29;20059;-78
2022/07/30 10:33:23;;;;;;;5.75;2.20;;;26.40;54.90;;;;;;4870486;29;20045;-76
2022/07/30 10:35:50;;;;;;;4.90;2.22;;;26.50;53.60;;;;;;4865533;29;20060;-77
2022/07/30 10:38:20;;;;;;;3.55;2.25;;;26.70;50.60;;;;;;4870648;29;20049;-77
2022/07/30 10:40:52;;;;;;;7.68;1.75;;;26.90;51.00;;;;;;4865679;29;20135;-76
2022/07/30 10:43:49;;;;;;;4.53;1.88;;;26.90;50.60;;;;;;4867976;29;20049;-77
2022/07/30 10:46:29;;;;;;;3.83;1.73;;;27.00;50.90;;;;;;4864330;29;20143;-77
2022/07/30 10:49:08;;;;;;;6.00;2.42;;;27.10;49.60;;;;;;4869345;29;20128;-76
2022/07/30 10:51:48;;;;;;;5.75;2.20;;;27.20;48.40;;;;;;4865893;29;20063;-76
2022/07/30 10:54:41;;;;;;;4.65;2.20;;;27.30;47.80;;;;;;4868751;29;20093;-76
2022/07/30 10:57:13;;;;;;;4.00;2.38;;;27.40;48.50;;;;;;4867999;29;20097;-75
2022/07/30 11:00:11;;;;;;;7.30;2.60;;;27.50;48.60;;;;;;4865119;29;20491;-77
2022/07/30 11:02:39;;;;;;;6.97;2.13;;;27.60;47.90;;;;;;4866922;29;20053;-75
2022/07/30 11:05:27;;;;;;;4.82;2.20;;;27.70;47.20;;;;;;4867452;29;20370;-74
2022/07/30 11:07:54;;;;;;;5.07;2.10;;;27.80;45.80;;;;;;4868726;29;20049;-74
2022/07/30 11:10:39;;;;;;;4.13;1.98;;;27.80;46.00;;;;;;4868047;29;20045;-74
2022/07/30 11:13:06;;;;;;;3.35;1.40;;;27.90;45.70;;;;;;4864044;29;20720;-75
2022/07/30 11:15:54;;;;;;;6.28;1.95;;;28.00;42.40;;;;;;4866798;29;20045;-75
2022/07/30 11:18:23;;;;;;;4.03;1.50;;;28.00;44.40;;;;;;4860513;29;20084;-76
2022/07/30 11:21:16;;;;;;;3.38;1.73;;;28.10;44.20;;;;;;4869118;29;20053;-76
2022/07/30 11:23:44;;;;;;;5.05;2.08;;;28.10;44.30;;;;;;4860989;29;20087;-76
2022/07/30 11:26:38;;;;;;;3.42;1.88;;;28.30;43.20;;;;;;4868890;29;20543;-77
2022/07/30 11:29:05;;;;;;;6.68;3.88;;;28.40;44.00;;;;;;4871471;29;20372;-74
2022/07/30 11:31:36;;;;;;;8.32;3.75;;;28.30;44.60;;;;;;4868154;29;20067;-78
2022/07/30 11:34:25;;;;;;;7.78;3.47;;;28.30;43.80;;;;;;4871158;29;20101;-74
2022/07/30 11:37:12;;;;;;;6.95;2.70;;;28.30;42.20;;;;;;4867057;29;20047;-76
2022/07/30 11:40:11;;;;;;;2.97;1.67;;;28.10;40.70;;;;;;4864934;29;20165;-76
2022/07/30 11:42:39;;;;;;;;;;;28.00;40.60;;;;;;4864067;29;20049;-76
2022/07/30 11:45:25;;;;;;;3.10;1.60;;;28.10;40.60;;;;;;4867475;29;19932;-76
2022/07/30 11:47:56;;;;;;;2.72;1.20;;;28.20;40.60;;;;;;4867959;29;20056;-77
2022/07/30 11:50:25;;;;;;;2.92;1.30;;;28.30;40.10;;;;;;4865537;29;20053;-74
2022/07/30 11:52:52;;;;;;;;;;;28.30;39.20;;;;;;4866497;29;20052;-74
2022/07/30 11:55:24;;;;;;;4.00;1.30;;;28.20;40.00;;;;;;4863512;29;20015;-73
2022/07/30 11:57:52;;;;;;;3.15;1.25;;;28.10;40.60;;;;;;4869514;29;20445;-75
2022/07/30 12:00:19;;;;;;;2.55;1.40;;;28.00;41.10;;;;;;4868107;29;20034;-76
2022/07/30 12:02:48;;;;;;;4.20;1.33;;;27.90;41.40;;;;;;4865151;29;20045;-75
2022/07/30 12:05:23;;;;;;;4.18;1.50;;;27.80;41.40;;;;;;4869194;29;20040;-76
2022/07/30 12:07:51;;;;;;;2.47;1.38;;;27.80;41.60;;;;;;4862105;29;20064;-75
2022/07/30 12:10:19;;;;;;;3.65;1.42;;;27.90;41.70;;;;;;4866328;29;20065;-76
2022/07/30 12:12:47;;;;;;;6.13;1.60;;;28.00;41.80;;;;;;4862753;29;20140;-75
2022/07/30 12:15:30;;;;;;;3.42;1.63;;;28.10;42.10;;;;;;4862523;29;20060;-74
2022/07/30 12:17:59;;;;;;;3.50;1.48;;;28.10;42.50;;;;;;4868541;29;20060;-75
2022/07/30 12:20:28;;;;;;;2.67;1.45;;;28.20;42.40;;;;;;4866441;29;20065;-75
2022/07/30 12:22:56;;;;;;;8.55;1.63;;;28.30;41.90;;;;;;4868282;29;20053;-75
2022/07/30 12:25:23;;;;;;;3.90;1.67;;;28.40;41.50;;;;;;4864678;29;20488;-76
2022/07/30 12:27:51;;;;;;;2.88;1.48;;;28.40;41.90;;;;;;4865607;29;20041;-78
2022/07/30 12:30:19;;;;;;;2.92;1.27;;;28.50;42.20;;;;;;4868522;29;20052;-76
2022/07/30 12:32:47;;;;;;;5.57;1.63;;;28.50;41.80;;;;;;4866775;29;20057;-74
2022/07/30 12:35:14;;;;;;;3.42;1.60;;;28.50;41.50;;;;;;4869195;29;20077;-74
2022/07/30 12:38:03;;;;;;;9.40;2.10;;;28.50;41.60;;;;;;4866708;29;20124;-75
2022/07/30 12:40:30;;;;;;;3.47;1.98;;;28.60;41.50;;;;;;4867093;29;20041;-73
2022/07/30 12:42:57;;;;;;;3.53;1.80;;;28.50;41.40;;;;;;4863959;29;20048;-75
2022/07/30 12:45:29;;;;;;;2.83;1.50;;;28.40;41.30;;;;;;4866695;29;20099;-74
2022/07/30 12:47:57;;;;;;;4.57;1.48;;;28.40;41.30;;;;;;4867006;29;20053;-75
2022/07/30 12:50:26;;;;;;;3.10;1.90;;;28.40;41.50;;;;;;4866345;29;20061;-74
2022/07/30 12:52:55;;;;;;;15.95;2.25;;;28.30;42.40;;;;;;4868360;29;20053;-75
2022/07/30 12:55:30;;;;;;;5.32;1.50;;;28.30;41.60;;;;;;4865044;29;20049;-75
2022/07/30 12:58:00;;;;;;;3.47;1.40;;;28.20;41.10;;;;;;4868120;29;20038;-74
2022/07/30 13:00:29;;;;;;;2.30;1.38;;;28.30;40.30;;;;;;4862113;29;20129;-76
2022/07/30 13:02:57;;;;;;;8.30;1.90;;;28.30;41.30;;;;;;4868013;29;20460;-74
2022/07/30 13:05:46;;;;;;;4.43;1.70;;;28.30;41.20;;;;;;4869773;29;20052;-76
2022/07/30 13:08:15;;;;;;;4.00;1.85;;;28.20;41.70;;;;;;4873555;29;20045;-74
2022/07/30 13:10:55;;;;;;;3.65;1.80;;;28.10;41.70;;;;;;4868682;29;20045;-74
2022/07/30 13:13:22;;;;;;;3.47;1.40;;;28.00;41.20;;;;;;4864696;29;20041;-76
2022/07/30 13:15:59;;;;;;;4.72;1.83;;;27.80;41.50;;;;;;4869580;29;20114;-74
2022/07/30 13:18:26;;;;;;;4.75;1.80;;;27.80;41.50;;;;;;4863228;29;20122;-74